createdAt,value
2017-08-17T00:02:25.537Z,31.87
2017-08-17T00:04:54.742Z,30.83
2017-08-17T00:07:23.824Z,30.53
2017-08-17T00:09:52.160Z,28.33
2017-08-17T00:12:20.534Z,28.00
2017-08-17T00:14:49.724Z,25.00
2017-08-17T00:17:18.034Z,22.63
2017-08-17T00:19:47.136Z,22.43
2017-08-17T00:22:16.241Z,20.93
2017-08-17T00:24:45.345Z,19.30
2017-08-17T00:27:13.691Z,19.20
2017-08-17T00:29:42.053Z,16.37
2017-08-17T00:32:10.417Z,17.90
2017-08-17T00:34:39.620Z,11.67
2017-08-17T00:37:07.953Z,16.33
2017-08-17T00:39:36.258Z,12.67
2017-08-17T00:42:04.602Z,12.97
2017-08-17T00:44:32.945Z,15.23
2017-08-17T00:47:03.737Z,12.50
2017-08-17T00:49:32.837Z,12.90
2017-08-17T00:52:01.201Z,14.03
2017-08-17T00:54:29.544Z,11.90
2017-08-17T00:56:58.936Z,9.80
2017-08-17T00:59:27.238Z,11.30
2017-08-17T01:01:56.332Z,16.13
2017-08-17T01:04:25.415Z,13.53
2017-08-17T01:06:53.799Z,10.63
2017-08-17T01:09:22.110Z,11.57
2017-08-17T01:11:50.416Z,11.73
2017-08-17T01:14:19.513Z,12.30
2017-08-17T01:16:47.851Z,21.37
2017-08-17T01:19:16.200Z,14.47
2017-08-17T01:21:45.275Z,11.97
2017-08-17T01:24:13.758Z,12.40
2017-08-17T01:26:42.062Z,14.23
2017-08-17T01:29:10.366Z,13.97
2017-08-17T01:31:38.700Z,14.10
2017-08-17T01:34:07.015Z,14.17
2017-08-17T01:36:35.351Z,14.10
2017-08-17T01:39:04.452Z,13.63
2017-08-17T01:41:33.553Z,14.63
2017-08-17T01:44:01.909Z,14.33
2017-08-17T01:46:30.344Z,16.97
2017-08-17T01:48:58.645Z,15.70
2017-08-17T01:51:27.728Z,12.07
2017-08-17T01:53:56.083Z,12.80
2017-08-17T01:56:24.523Z,14.17
2017-08-17T01:58:52.831Z,11.27
2017-08-17T02:01:22.586Z,15.93
2017-08-17T02:03:50.882Z,13.93
2017-08-17T02:06:19.193Z,11.83
2017-08-17T02:08:47.550Z,11.97
2017-08-17T02:11:15.911Z,12.03
2017-08-17T02:13:45.011Z,11.10
2017-08-17T02:16:13.308Z,9.33
2017-08-17T02:18:42.376Z,9.00
2017-08-17T02:21:10.696Z,8.07
2017-08-17T02:23:39.789Z,8.93
2017-08-17T02:26:08.120Z,9.80
2017-08-17T02:28:36.449Z,7.73
2017-08-17T02:31:04.786Z,8.13
2017-08-17T02:33:33.089Z,8.10
2017-08-17T02:36:01.419Z,9.20
2017-08-17T02:38:29.769Z,13.60
2017-08-17T02:40:58.068Z,14.80
2017-08-17T02:43:26.373Z,19.73
2017-08-17T02:45:54.868Z,15.43
2017-08-17T02:48:23.173Z,9.60
2017-08-17T02:50:51.526Z,12.90
2017-08-17T02:53:19.828Z,12.53
2017-08-17T02:55:48.135Z,13.20
2017-08-17T02:58:16.485Z,10.10
2017-08-17T03:00:44.792Z,10.53
2017-08-17T03:03:13.225Z,15.23
2017-08-17T03:05:41.532Z,13.60
2017-08-17T03:08:09.868Z,18.63
2017-08-17T03:10:38.208Z,12.20
2017-08-17T03:13:07.318Z,14.20
2017-08-17T03:15:36.424Z,20.03
2017-08-17T03:18:05.491Z,17.37
2017-08-17T03:20:33.931Z,13.90
2017-08-17T03:23:03.033Z,17.73
2017-08-17T03:25:32.840Z,17.77
2017-08-17T03:28:01.175Z,22.63
2017-08-17T03:30:29.521Z,16.60
2017-08-17T03:32:57.889Z,16.33
2017-08-17T03:35:26.214Z,38.13
2017-08-17T03:37:55.316Z,25.63
2017-08-17T03:40:24.448Z,23.53
2017-08-17T03:42:52.760Z,18.33
2017-08-17T03:45:21.100Z,17.00
2017-08-17T03:47:49.403Z,16.43
2017-08-17T03:50:18.771Z,20.33
2017-08-17T03:52:47.204Z,20.07
2017-08-17T03:55:16.306Z,26.57
2017-08-17T03:57:45.408Z,16.60
2017-08-17T04:00:13.728Z,24.30
2017-08-17T04:02:42.350Z,19.20
2017-08-17T04:05:10.656Z,17.93
2017-08-17T04:07:38.971Z,24.97
2017-08-17T04:10:07.304Z,16.87
2017-08-17T04:12:35.605Z,20.80
2017-08-17T04:15:03.948Z,15.80
2017-08-17T04:17:33.017Z,16.23
2017-08-17T04:20:01.352Z,17.57
2017-08-17T04:22:30.428Z,16.00
2017-08-17T04:24:58.841Z,24.70
2017-08-17T04:27:27.172Z,18.47
2017-08-17T04:29:55.480Z,16.90
2017-08-17T04:32:23.816Z,14.80
2017-08-17T04:34:52.146Z,28.87
2017-08-17T04:37:20.460Z,22.77
2017-08-17T04:39:48.800Z,16.70
2017-08-17T04:42:18.860Z,20.00
2017-08-17T04:44:47.172Z,17.90
2017-08-17T04:47:16.358Z,20.53
2017-08-17T04:49:44.689Z,22.63
2017-08-17T04:52:14.413Z,25.10
2017-08-17T04:54:42.744Z,27.63
2017-08-17T04:57:38.489Z,18.30
2017-08-17T05:00:07.563Z,20.30
2017-08-17T05:02:37.549Z,28.77
2017-08-17T05:05:05.897Z,21.00
2017-08-17T05:07:34.202Z,23.23
2017-08-17T05:10:02.554Z,27.43
2017-08-17T05:12:31.639Z,32.60
2017-08-17T05:14:59.953Z,30.60
2017-08-17T05:17:29.058Z,34.60
2017-08-17T05:19:58.172Z,29.33
2017-08-17T05:22:26.470Z,32.63
2017-08-17T05:24:55.787Z,29.70
2017-08-17T05:27:24.132Z,32.00
2017-08-17T05:29:52.428Z,31.00
2017-08-17T05:32:20.789Z,27.67
2017-08-17T05:34:49.120Z,30.83
2017-08-17T05:37:18.305Z,35.07
2017-08-17T05:39:47.705Z,28.83
2017-08-17T05:42:16.132Z,31.23
2017-08-17T05:44:45.246Z,23.30
2017-08-17T05:47:14.318Z,23.80
2017-08-17T05:49:42.643Z,16.90
2017-08-17T05:52:11.724Z,19.03
2017-08-17T05:54:40.133Z,22.33
2017-08-17T05:57:08.460Z,10.97
2017-08-17T05:59:36.808Z,14.23
2017-08-17T06:02:05.308Z,13.50
2017-08-17T06:04:33.637Z,14.10
2017-08-17T06:07:01.972Z,10.67
2017-08-17T06:09:31.585Z,9.10
2017-08-17T06:11:59.888Z,12.43
2017-08-17T06:14:28.286Z,12.13
2017-08-17T06:16:56.623Z,6.70
2017-08-17T06:19:24.926Z,6.60
2017-08-17T06:21:53.249Z,7.43
2017-08-17T06:24:21.552Z,4.87
2017-08-17T06:26:50.640Z,5.50
2017-08-17T06:29:22.328Z,3.60
2017-08-17T06:31:51.531Z,4.80
2017-08-17T06:34:19.861Z,4.03
2017-08-17T06:36:48.149Z,4.43
2017-08-17T06:39:16.444Z,7.57
2017-08-17T06:41:44.773Z,5.77
2017-08-17T06:44:13.068Z,9.90
2017-08-17T06:46:41.388Z,7.13
2017-08-17T06:49:09.732Z,11.97
2017-08-17T06:51:38.063Z,5.33
2017-08-17T06:54:07.160Z,3.83
2017-08-17T06:56:36.255Z,4.40
2017-08-17T06:59:04.584Z,4.40
2017-08-17T07:01:32.914Z,8.00
2017-08-17T07:04:01.207Z,7.23
2017-08-17T07:06:29.509Z,2.93
2017-08-17T07:08:57.872Z,11.53
2017-08-17T07:11:27.329Z,6.33
2017-08-17T07:13:56.398Z,2.33
2017-08-17T07:16:24.889Z,2.53
2017-08-17T07:18:53.273Z,4.20
2017-08-17T07:21:21.582Z,2.37
2017-08-17T07:23:49.926Z,3.27
2017-08-17T07:26:18.387Z,2.73
2017-08-17T07:28:46.824Z,2.30
2017-08-17T07:31:15.112Z,2.90
2017-08-17T07:33:43.647Z,3.40
2017-08-17T07:36:11.940Z,6.13
2017-08-17T07:38:40.243Z,4.50
2017-08-17T07:41:08.586Z,2.67
2017-08-17T07:43:36.885Z,3.50
2017-08-17T07:46:06.281Z,3.13
2017-08-17T07:48:34.617Z,3.03
2017-08-17T07:51:03.701Z,3.17
2017-08-17T07:53:32.812Z,3.97
2017-08-17T07:56:02.143Z,3.50
2017-08-17T07:58:30.512Z,2.80
2017-08-17T08:00:59.600Z,2.93
2017-08-17T08:03:27.892Z,3.10
2017-08-17T08:05:56.999Z,4.80
2017-08-17T08:08:25.299Z,2.43
2017-08-17T08:10:54.368Z,5.70
2017-08-17T08:13:22.939Z,4.27
2017-08-17T08:15:52.071Z,1.93
2017-08-17T08:18:20.509Z,12.50
2017-08-17T08:20:49.593Z,2.37
2017-08-17T08:23:17.901Z,4.93
2017-08-17T08:25:47.098Z,2.57
2017-08-17T08:28:15.510Z,3.57
2017-08-17T08:30:44.597Z,2.17
2017-08-17T08:33:12.900Z,2.60
2017-08-17T08:35:41.965Z,3.80
2017-08-17T08:38:10.292Z,3.60
2017-08-17T08:40:39.421Z,3.63
2017-08-17T08:43:07.733Z,2.70
2017-08-17T08:45:36.291Z,4.00
2017-08-17T08:48:04.591Z,4.40
2017-08-17T08:50:32.911Z,2.37
2017-08-17T08:53:02.476Z,3.13
2017-08-17T08:55:30.764Z,6.13
2017-08-17T08:57:59.840Z,4.13
2017-08-17T09:00:28.167Z,2.27
2017-08-17T09:02:56.461Z,2.03
2017-08-17T09:05:24.795Z,5.00
2017-08-17T09:07:53.101Z,1.80
2017-08-17T09:10:21.393Z,4.30
2017-08-17T09:12:49.789Z,4.70
2017-08-17T09:15:18.889Z,4.00
2017-08-17T09:17:47.212Z,1.97
2017-08-17T09:20:16.269Z,3.63
2017-08-17T09:22:44.599Z,3.40
2017-08-17T09:25:13.688Z,4.17
2017-08-17T09:27:42.122Z,7.03
2017-08-17T09:30:10.455Z,3.80
2017-08-17T09:32:40.609Z,2.43
2017-08-17T09:35:10.078Z,6.07
2017-08-17T09:37:38.369Z,4.03
2017-08-17T09:40:06.700Z,2.20
2017-08-17T09:42:35.027Z,4.60
2017-08-17T09:45:03.315Z,3.57
2017-08-17T09:47:31.653Z,7.50
2017-08-17T09:49:59.983Z,2.80
2017-08-17T09:52:28.312Z,4.50
2017-08-17T09:54:56.646Z,2.70
2017-08-17T09:57:25.757Z,2.77
2017-08-17T09:59:54.089Z,3.17
2017-08-17T10:02:22.390Z,3.77
2017-08-17T10:04:51.932Z,5.30
2017-08-17T10:07:20.329Z,4.63
2017-08-17T10:09:49.430Z,3.53
2017-08-17T10:12:18.760Z,2.67
2017-08-17T10:14:47.072Z,2.57
2017-08-17T10:17:15.421Z,2.53
2017-08-17T10:19:43.789Z,2.63
2017-08-17T10:22:12.170Z,2.77
2017-08-17T10:24:40.508Z,2.93
2017-08-17T10:27:08.881Z,2.90
2017-08-17T10:29:37.209Z,5.17
2017-08-17T10:32:05.550Z,7.63
2017-08-17T10:34:33.958Z,5.47
2017-08-17T10:37:03.069Z,2.87
2017-08-17T10:39:31.355Z,5.47
2017-08-17T10:41:59.685Z,6.97
2017-08-17T10:44:28.027Z,3.40
2017-08-17T10:46:56.363Z,8.33
2017-08-17T10:49:24.716Z,4.17
2017-08-17T10:51:54.099Z,4.83
2017-08-17T10:54:22.719Z,2.60
2017-08-17T10:56:51.126Z,3.23
2017-08-17T10:59:20.203Z,2.87
2017-08-17T11:01:48.532Z,4.80
2017-08-17T11:04:16.929Z,5.17
2017-08-17T11:06:45.256Z,6.73
2017-08-17T11:09:13.586Z,5.43
2017-08-17T11:11:41.889Z,5.87
2017-08-17T11:14:10.210Z,3.90
2017-08-17T11:16:38.538Z,5.77
2017-08-17T11:19:06.891Z,3.47
2017-08-17T11:21:35.244Z,3.50
2017-08-17T11:24:04.340Z,3.57
2017-08-17T11:26:32.651Z,3.53
2017-08-17T11:29:00.964Z,3.93
2017-08-17T11:31:31.232Z,4.13
2017-08-17T11:34:06.283Z,3.60
2017-08-17T11:36:34.652Z,13.37
2017-08-17T11:39:02.985Z,3.97
2017-08-17T11:41:32.076Z,9.30
2017-08-17T11:44:00.380Z,4.10
2017-08-17T11:46:29.913Z,4.90
2017-08-17T11:48:58.255Z,5.90
2017-08-17T11:51:26.063Z,3.17
2017-08-17T11:53:54.386Z,4.20
2017-08-17T11:56:22.687Z,4.73
2017-08-17T11:58:51.170Z,4.70
2017-08-17T12:01:19.557Z,7.17
2017-08-17T12:03:47.862Z,5.57
2017-08-17T12:06:16.206Z,6.30
2017-08-17T12:08:44.533Z,3.53
2017-08-17T12:11:13.176Z,4.63
2017-08-17T12:13:41.517Z,4.80
2017-08-17T12:16:09.897Z,5.83
2017-08-17T12:18:38.196Z,6.67
2017-08-17T12:21:06.587Z,9.40
2017-08-17T12:23:34.994Z,10.23
2017-08-17T12:26:03.300Z,14.90
2017-08-17T12:28:31.621Z,3.60
2017-08-17T12:30:59.916Z,13.40
2017-08-17T12:33:28.244Z,5.53
2017-08-17T12:35:56.545Z,6.37
2017-08-17T12:38:24.857Z,4.97
2017-08-17T12:40:53.195Z,9.33
2017-08-17T12:43:21.496Z,12.77
2017-08-17T12:45:49.798Z,14.40
2017-08-17T12:48:18.119Z,5.30
2017-08-17T12:50:46.413Z,4.77
2017-08-17T12:53:14.717Z,10.13
2017-08-17T12:55:43.313Z,8.53
2017-08-17T12:58:11.770Z,6.17
2017-08-17T13:00:40.126Z,3.30
2017-08-17T13:03:08.458Z,11.60
2017-08-17T13:05:36.801Z,8.93
2017-08-17T13:08:05.090Z,5.17
2017-08-17T13:10:33.416Z,5.77
2017-08-17T16:49:50.767Z,9.93
2017-08-17T16:52:19.825Z,7.03
2017-08-17T16:54:48.372Z,3.33
2017-08-17T16:57:16.728Z,5.40
2017-08-17T16:59:45.033Z,2.80
2017-08-17T17:02:14.316Z,16.50
2017-08-17T17:04:43.440Z,7.73
2017-08-17T17:07:12.136Z,11.77
2017-08-17T17:09:40.490Z,2.77
2017-08-17T17:12:08.836Z,6.77
2017-08-17T17:14:37.298Z,2.60
2017-08-17T17:17:05.633Z,2.43
2017-08-17T17:19:34.785Z,4.07
2017-08-17T17:22:03.098Z,2.43
2017-08-17T17:24:31.413Z,3.13
2017-08-17T17:27:00.487Z,3.13
2017-08-17T17:29:28.902Z,3.60
2017-08-17T17:31:57.296Z,2.53
2017-08-17T17:34:28.772Z,3.00
2017-08-17T17:36:58.168Z,2.90
2017-08-17T17:39:26.565Z,7.63
2017-08-17T17:41:55.671Z,2.20
2017-08-17T17:44:23.961Z,3.03
2017-08-17T17:46:53.446Z,8.10
2017-08-17T17:49:21.736Z,2.10
2017-08-17T17:51:50.063Z,2.60
2017-08-17T17:54:18.383Z,4.20
2017-08-17T17:56:46.684Z,2.80
2017-08-17T17:59:15.046Z,2.30
2017-08-17T18:01:44.994Z,2.37
2017-08-17T18:04:13.288Z,3.23
2017-08-17T18:06:41.633Z,3.43
2017-08-17T18:09:09.933Z,2.63
2017-08-17T18:11:38.999Z,7.37
2017-08-17T18:14:07.317Z,5.60
2017-08-17T18:16:35.634Z,2.67
2017-08-17T18:19:03.969Z,3.93
2017-08-17T18:21:32.296Z,2.93
2017-08-17T18:24:00.626Z,5.13
2017-08-17T18:26:28.959Z,3.50
2017-08-17T18:28:57.257Z,5.63
2017-08-17T18:31:27.509Z,3.37
2017-08-17T18:33:55.933Z,5.70
2017-08-17T18:36:24.277Z,3.57
2017-08-17T18:38:52.639Z,3.40
2017-08-17T18:41:21.362Z,5.37
2017-08-17T18:43:50.279Z,4.57
2017-08-17T18:46:18.590Z,3.27
2017-08-17T18:48:46.964Z,3.27
2017-08-17T18:51:15.305Z,2.57
2017-08-17T18:53:43.607Z,2.17
2017-08-17T18:56:11.900Z,5.23
2017-08-17T18:58:40.372Z,5.30
2017-08-17T19:01:08.718Z,2.90
2017-08-17T19:03:37.890Z,6.83
2017-08-17T19:06:06.390Z,4.00
2017-08-17T19:08:34.699Z,3.00
2017-08-17T19:11:05.780Z,2.80
2017-08-17T19:13:34.120Z,3.10
2017-08-17T19:16:02.428Z,8.30
2017-08-17T19:18:30.726Z,2.83
2017-08-17T19:21:04.218Z,3.17
2017-08-17T19:23:32.820Z,2.77
2017-08-17T19:26:01.129Z,2.97
2017-08-17T19:28:29.576Z,4.93
2017-08-17T19:30:58.000Z,3.30
2017-08-17T19:33:26.333Z,3.50
2017-08-17T19:35:54.623Z,6.83
2017-08-17T19:38:22.959Z,6.03
2017-08-17T19:40:51.281Z,3.33
2017-08-17T19:43:19.649Z,4.07
2017-08-17T19:45:48.007Z,8.70
2017-08-17T19:48:16.324Z,3.00
2017-08-17T19:50:45.420Z,3.50
2017-08-17T19:53:13.721Z,3.47
2017-08-17T19:55:42.876Z,2.77
2017-08-17T19:58:11.203Z,4.37
2017-08-17T20:00:39.587Z,3.10
2017-08-17T20:03:07.897Z,4.17
2017-08-17T20:05:36.219Z,5.87
2017-08-17T20:08:06.304Z,3.87
2017-08-17T20:10:35.427Z,2.77
2017-08-17T20:13:05.232Z,5.20
2017-08-17T20:15:33.529Z,3.00
2017-08-17T20:18:02.872Z,3.07
2017-08-17T20:20:31.217Z,5.47
2017-08-17T20:23:00.385Z,2.37
2017-08-17T20:25:29.941Z,2.73
2017-08-17T20:27:58.243Z,3.57
2017-08-17T20:30:26.549Z,4.47
2017-08-17T20:32:54.889Z,2.47
2017-08-17T20:35:23.187Z,2.30
2017-08-17T20:37:51.483Z,3.50
2017-08-17T20:40:19.802Z,2.83
2017-08-17T20:42:48.146Z,2.77
2017-08-17T20:45:16.476Z,5.90
2017-08-17T20:47:45.550Z,3.67
2017-08-17T20:50:13.879Z,2.40
2017-08-17T20:52:42.993Z,3.67
2017-08-17T20:55:12.088Z,2.67
2017-08-17T20:57:41.366Z,2.03
2017-08-17T21:00:09.700Z,2.37
2017-08-17T21:02:38.900Z,2.53
2017-08-17T21:05:07.204Z,2.70
2017-08-17T21:07:36.276Z,2.20
2017-08-17T21:10:06.280Z,1.87
2017-08-17T21:12:34.568Z,4.83
2017-08-17T21:15:04.488Z,2.33
2017-08-17T21:17:32.807Z,2.00
2017-08-17T21:20:01.119Z,3.33
2017-08-17T21:22:30.045Z,2.10
2017-08-17T21:24:58.349Z,2.30
2017-08-17T21:27:26.664Z,2.83
2017-08-17T21:29:54.987Z,7.90
2017-08-17T21:32:24.180Z,9.80
2017-08-17T21:34:52.513Z,1.97
2017-08-17T21:37:20.880Z,2.53
2017-08-17T21:39:49.268Z,2.30
2017-08-17T21:42:17.622Z,5.70
2017-08-17T21:44:46.663Z,3.37
2017-08-17T21:47:15.023Z,4.83
2017-08-17T21:49:48.400Z,3.07
2017-08-17T21:52:23.065Z,2.63
2017-08-17T21:54:51.480Z,2.53
2017-08-17T21:57:19.787Z,1.87
2017-08-17T21:59:49.205Z,2.03
2017-08-17T22:02:20.485Z,2.60
2017-08-17T22:04:53.270Z,2.13
2017-08-17T22:07:21.566Z,2.50
2017-08-17T22:09:49.860Z,3.43
2017-08-17T22:12:19.071Z,2.20
2017-08-17T22:14:47.360Z,2.13
2017-08-17T22:17:15.796Z,3.27
2017-08-17T22:19:46.855Z,4.63
2017-08-17T22:22:17.111Z,3.57
2017-08-17T22:24:45.440Z,2.57
2017-08-17T22:27:13.744Z,8.20
2017-08-17T22:29:42.619Z,2.53
2017-08-17T22:32:10.974Z,2.37
2017-08-17T22:34:39.273Z,2.27
2017-08-17T22:37:07.609Z,6.63
2017-08-17T22:42:41.737Z,2.23
2017-08-17T22:45:10.073Z,2.30
2017-08-17T22:47:38.396Z,2.30
2017-08-17T22:50:19.861Z,4.23
2017-08-17T22:52:52.694Z,2.63
2017-08-17T22:55:21.019Z,2.23
2017-08-17T22:57:49.317Z,3.10
2017-08-17T23:00:17.648Z,2.77
2017-08-17T23:02:45.969Z,3.20
2017-08-17T23:05:14.299Z,2.70
2017-08-17T23:07:42.638Z,2.47
2017-08-17T23:10:10.963Z,1.60
2017-08-17T23:12:39.315Z,4.00
2017-08-17T23:15:07.650Z,5.00
2017-08-17T23:17:35.981Z,3.40
2017-08-17T23:20:04.330Z,3.17
2017-08-17T23:22:32.639Z,2.60
2017-08-17T23:25:00.972Z,5.67
2017-08-17T23:27:30.312Z,3.00
2017-08-17T23:29:58.612Z,2.27
2017-08-17T23:35:27.276Z,2.63
2017-08-17T23:37:55.617Z,1.97
2017-08-17T23:40:23.987Z,2.40
2017-08-17T23:42:53.066Z,2.03
2017-08-17T23:45:22.174Z,2.10
2017-08-17T23:47:50.972Z,2.23
2017-08-17T23:50:20.498Z,5.97
2017-08-17T23:52:48.883Z,2.33
2017-08-17T23:55:17.191Z,1.73
